sensor_id;sensor_type;location;lat;lon;timestamp;P1;durP1;ratioP1;P2;durP2;ratioP2
20629;SDS011;17386;43.846;25.950;2022-10-29T00:01:07;7.57;;;3.80;;
20629;SDS011;17386;43.846;25.950;2022-10-29T00:03:32;8.82;;;4.18;;
20629;SDS011;17386;43.846;25.950;2022-10-29T00:05:59;9.00;;;4.50;;
20629;SDS011;17386;43.846;25.950;2022-10-29T00:08:26;7.63;;;4.05;;
20629;SDS011;17386;43.846;25.950;2022-10-29T00:10:53;11.50;;;4.95;;
20629;SDS011;17386;43.846;25.950;2022-10-29T00:13:18;7.78;;;4.28;;
20629;SDS011;17386;43.846;25.950;2022-10-29T00:15:44;7.68;;;4.60;;
20629;SDS011;17386;43.846;25.950;2022-10-29T00:18:09;8.38;;;4.40;;
20629;SDS011;17386;43.846;25.950;2022-10-29T00:20:35;7.38;;;4.18;;
20629;SDS011;17386;43.846;25.950;2022-10-29T00:23:00;8.35;;;3.92;;
20629;SDS011;17386;43.846;25.950;2022-10-29T00:25:25;7.95;;;4.13;;
20629;SDS011;17386;43.846;25.950;2022-10-29T00:27:51;8.82;;;4.15;;
20629;SDS011;17386;43.846;25.950;2022-10-29T00:30:16;8.82;;;4.05;;
20629;SDS011;17386;43.846;25.950;2022-10-29T00:32:41;9.82;;;4.50;;
20629;SDS011;17386;43.846;25.950;2022-10-29T00:35:07;6.72;;;4.07;;
20629;SDS011;17386;43.846;25.950;2022-10-29T00:37:33;10.18;;;4.68;;
20629;SDS011;17386;43.846;25.950;2022-10-29T00:39:59;8.93;;;4.50;;
20629;SDS011;17386;43.846;25.950;2022-10-29T00:42:24;8.52;;;4.07;;
20629;SDS011;17386;43.846;25.950;2022-10-29T00:44:50;8.07;;;4.30;;
20629;SDS011;17386;43.846;25.950;2022-10-29T00:47:28;9.32;;;4.43;;
20629;SDS011;17386;43.846;25.950;2022-10-29T00:52:26;9.95;;;4.63;;
20629;SDS011;17386;43.846;25.950;2022-10-29T00:54:56;9.25;;;4.13;;
20629;SDS011;17386;43.846;25.950;2022-10-29T00:57:28;9.05;;;4.75;;
20629;SDS011;17386;43.846;25.950;2022-10-29T00:59:59;9.23;;;4.50;;
20629;SDS011;17386;43.846;25.950;2022-10-29T01:02:25;12.13;;;5.68;;
20629;SDS011;17386;43.846;25.950;2022-10-29T01:04:51;14.15;;;6.80;;
20629;SDS011;17386;43.846;25.950;2022-10-29T01:07:18;14.07;;;7.25;;
20629;SDS011;17386;43.846;25.950;2022-10-29T01:09:45;18.13;;;8.32;;
20629;SDS011;17386;43.846;25.950;2022-10-29T01:12:17;17.92;;;7.55;;
20629;SDS011;17386;43.846;25.950;2022-10-29T01:31:34;17.88;;;8.02;;
20629;SDS011;17386;43.846;25.950;2022-10-29T01:34:15;13.75;;;7.03;;
20629;SDS011;17386;43.846;25.950;2022-10-29T01:37:08;16.55;;;7.38;;
20629;SDS011;17386;43.846;25.950;2022-10-29T01:39:43;13.50;;;7.32;;
20629;SDS011;17386;43.846;25.950;2022-10-29T01:42:34;16.55;;;7.18;;
20629;SDS011;17386;43.846;25.950;2022-10-29T01:48:03;14.35;;;7.15;;
20629;SDS011;17386;43.846;25.950;2022-10-29T01:50:33;13.98;;;7.88;;
20629;SDS011;17386;43.846;25.950;2022-10-29T01:53:02;14.23;;;7.55;;
20629;SDS011;17386;43.846;25.950;2022-10-29T01:55:30;15.15;;;6.38;;
20629;SDS011;17386;43.846;25.950;2022-10-29T01:57:59;11.70;;;6.30;;
20629;SDS011;17386;43.846;25.950;2022-10-29T02:00:27;18.05;;;6.68;;
20629;SDS011;17386;43.846;25.950;2022-10-29T02:06:16;10.05;;;5.30;;
20629;SDS011;17386;43.846;25.950;2022-10-29T02:09:00;10.95;;;5.07;;
20629;SDS011;17386;43.846;25.950;2022-10-29T02:11:43;9.50;;;5.05;;
20629;SDS011;17386;43.846;25.950;2022-10-29T02:14:19;8.43;;;5.05;;
20629;SDS011;17386;43.846;25.950;2022-10-29T02:16:50;12.00;;;5.07;;
20629;SDS011;17386;43.846;25.950;2022-10-29T02:19:17;8.63;;;4.50;;
20629;SDS011;17386;43.846;25.950;2022-10-29T02:21:43;10.57;;;5.07;;
20629;SDS011;17386;43.846;25.950;2022-10-29T02:24:09;9.00;;;4.57;;
20629;SDS011;17386;43.846;25.950;2022-10-29T02:26:34;9.38;;;4.35;;
20629;SDS011;17386;43.846;25.950;2022-10-29T02:29:00;9.70;;;4.50;;
20629;SDS011;17386;43.846;25.950;2022-10-29T02:31:26;7.13;;;4.30;;
20629;SDS011;17386;43.846;25.950;2022-10-29T02:33:52;10.23;;;4.60;;
20629;SDS011;17386;43.846;25.950;2022-10-29T02:36:17;11.48;;;5.07;;
20629;SDS011;17386;43.846;25.950;2022-10-29T02:38:42;8.32;;;4.15;;
20629;SDS011;17386;43.846;25.950;2022-10-29T02:41:08;9.63;;;4.40;;
20629;SDS011;17386;43.846;25.950;2022-10-29T02:43:33;7.53;;;4.03;;
20629;SDS011;17386;43.846;25.950;2022-10-29T02:46:08;8.10;;;4.63;;
20629;SDS011;17386;43.846;25.950;2022-10-29T02:48:39;6.75;;;4.18;;
20629;SDS011;17386;43.846;25.950;2022-10-29T02:51:05;9.02;;;4.65;;
20629;SDS011;17386;43.846;25.950;2022-10-29T02:53:30;9.45;;;4.78;;
20629;SDS011;17386;43.846;25.950;2022-10-29T02:55:56;9.20;;;4.60;;
20629;SDS011;17386;43.846;25.950;2022-10-29T02:58:21;6.28;;;3.90;;
20629;SDS011;17386;43.846;25.950;2022-10-29T03:00:50;8.65;;;4.93;;
20629;SDS011;17386;43.846;25.950;2022-10-29T03:03:16;8.88;;;4.82;;
20629;SDS011;17386;43.846;25.950;2022-10-29T03:05:41;8.68;;;5.05;;
20629;SDS011;17386;43.846;25.950;2022-10-29T03:08:07;8.43;;;4.70;;
20629;SDS011;17386;43.846;25.950;2022-10-29T03:10:32;8.95;;;4.78;;
20629;SDS011;17386;43.846;25.950;2022-10-29T03:12:58;9.00;;;4.30;;
20629;SDS011;17386;43.846;25.950;2022-10-29T03:15:24;10.77;;;5.10;;
20629;SDS011;17386;43.846;25.950;2022-10-29T03:17:50;8.57;;;4.53;;
20629;SDS011;17386;43.846;25.950;2022-10-29T03:20:15;9.90;;;4.30;;
20629;SDS011;17386;43.846;25.950;2022-10-29T03:22:40;8.68;;;4.60;;
20629;SDS011;17386;43.846;25.950;2022-10-29T03:25:06;11.73;;;4.65;;
20629;SDS011;17386;43.846;25.950;2022-10-29T03:27:32;8.52;;;4.47;;
20629;SDS011;17386;43.846;25.950;2022-10-29T03:30:04;8.23;;;4.88;;
20629;SDS011;17386;43.846;25.950;2022-10-29T03:32:30;10.90;;;4.35;;
20629;SDS011;17386;43.846;25.950;2022-10-29T03:34:55;8.38;;;4.22;;
20629;SDS011;17386;43.846;25.950;2022-10-29T03:37:20;8.05;;;4.53;;
20629;SDS011;17386;43.846;25.950;2022-10-29T03:39:46;13.80;;;5.05;;
20629;SDS011;17386;43.846;25.950;2022-10-29T03:42:11;13.50;;;5.03;;
20629;SDS011;17386;43.846;25.950;2022-10-29T03:44:36;8.55;;;5.05;;
20629;SDS011;17386;43.846;25.950;2022-10-29T03:47:02;10.60;;;4.57;;
20629;SDS011;17386;43.846;25.950;2022-10-29T03:49:27;9.82;;;4.97;;
20629;SDS011;17386;43.846;25.950;2022-10-29T03:51:53;10.75;;;5.00;;
20629;SDS011;17386;43.846;25.950;2022-10-29T03:54:18;11.07;;;5.55;;
20629;SDS011;17386;43.846;25.950;2022-10-29T03:56:43;12.50;;;5.07;;
20629;SDS011;17386;43.846;25.950;2022-10-29T03:59:09;10.15;;;5.65;;
20629;SDS011;17386;43.846;25.950;2022-10-29T04:01:34;9.43;;;4.93;;
20629;SDS011;17386;43.846;25.950;2022-10-29T04:03:59;9.70;;;4.78;;
20629;SDS011;17386;43.846;25.950;2022-10-29T04:06:25;8.27;;;4.93;;
20629;SDS011;17386;43.846;25.950;2022-10-29T04:08:50;14.98;;;5.18;;
20629;SDS011;17386;43.846;25.950;2022-10-29T04:11:15;12.07;;;5.00;;
20629;SDS011;17386;43.846;25.950;2022-10-29T04:13:41;9.98;;;4.90;;
20629;SDS011;17386;43.846;25.950;2022-10-29T04:16:06;10.15;;;5.35;;
20629;SDS011;17386;43.846;25.950;2022-10-29T04:18:32;10.68;;;5.05;;
20629;SDS011;17386;43.846;25.950;2022-10-29T04:20:58;8.75;;;5.22;;
20629;SDS011;17386;43.846;25.950;2022-10-29T04:25:57;10.52;;;4.82;;
20629;SDS011;17386;43.846;25.950;2022-10-29T04:28:23;11.85;;;5.55;;
20629;SDS011;17386;43.846;25.950;2022-10-29T04:30:49;9.02;;;4.78;;
20629;SDS011;17386;43.846;25.950;2022-10-29T04:33:14;11.27;;;4.80;;
20629;SDS011;17386;43.846;25.950;2022-10-29T04:35:40;11.65;;;4.88;;
20629;SDS011;17386;43.846;25.950;2022-10-29T04:38:09;11.98;;;4.97;;
20629;SDS011;17386;43.846;25.950;2022-10-29T04:40:35;12.00;;;5.45;;
20629;SDS011;17386;43.846;25.950;2022-10-29T04:43:01;11.57;;;4.93;;
20629;SDS011;17386;43.846;25.950;2022-10-29T04:45:26;9.13;;;4.20;;
20629;SDS011;17386;43.846;25.950;2022-10-29T04:48:01;13.15;;;5.10;;
20629;SDS011;17386;43.846;25.950;2022-10-29T04:50:28;10.18;;;4.75;;
20629;SDS011;17386;43.846;25.950;2022-10-29T04:53:01;9.38;;;4.47;;
20629;SDS011;17386;43.846;25.950;2022-10-29T04:55:28;13.18;;;5.07;;
20629;SDS011;17386;43.846;25.950;2022-10-29T04:57:54;10.13;;;5.32;;
20629;SDS011;17386;43.846;25.950;2022-10-29T05:00:20;9.18;;;5.05;;
20629;SDS011;17386;43.846;25.950;2022-10-29T05:02:49;8.45;;;4.32;;
20629;SDS011;17386;43.846;25.950;2022-10-29T05:05:16;10.50;;;5.85;;
20629;SDS011;17386;43.846;25.950;2022-10-29T05:07:42;16.27;;;6.82;;
20629;SDS011;17386;43.846;25.950;2022-10-29T05:10:07;16.80;;;8.05;;
20629;SDS011;17386;43.846;25.950;2022-10-29T05:12:33;11.98;;;7.35;;
20629;SDS011;17386;43.846;25.950;2022-10-29T05:14:58;16.48;;;7.75;;
20629;SDS011;17386;43.846;25.950;2022-10-29T05:17:24;11.27;;;5.82;;
20629;SDS011;17386;43.846;25.950;2022-10-29T05:19:49;13.65;;;6.47;;
20629;SDS011;17386;43.846;25.950;2022-10-29T05:22:14;14.52;;;5.78;;
20629;SDS011;17386;43.846;25.950;2022-10-29T05:24:40;11.30;;;5.22;;
20629;SDS011;17386;43.846;25.950;2022-10-29T05:27:05;13.27;;;5.88;;
20629;SDS011;17386;43.846;25.950;2022-10-29T05:29:31;10.52;;;5.57;;
20629;SDS011;17386;43.846;25.950;2022-10-29T05:31:56;9.30;;;5.13;;
20629;SDS011;17386;43.846;25.950;2022-10-29T05:34:22;12.13;;;5.30;;
20629;SDS011;17386;43.846;25.950;2022-10-29T05:36:47;11.85;;;5.35;;
20629;SDS011;17386;43.846;25.950;2022-10-29T05:39:13;17.52;;;6.20;;
20629;SDS011;17386;43.846;25.950;2022-10-29T05:41:38;8.65;;;5.05;;
20629;SDS011;17386;43.846;25.950;2022-10-29T05:44:03;10.65;;;5.90;;
20629;SDS011;17386;43.846;25.950;2022-10-29T05:46:29;11.50;;;5.35;;
20629;SDS011;17386;43.846;25.950;2022-10-29T05:48:54;14.88;;;5.32;;
20629;SDS011;17386;43.846;25.950;2022-10-29T05:51:20;14.65;;;6.60;;
20629;SDS011;17386;43.846;25.950;2022-10-29T05:53:46;13.77;;;7.38;;
20629;SDS011;17386;43.846;25.950;2022-10-29T05:56:12;14.05;;;6.75;;
20629;SDS011;17386;43.846;25.950;2022-10-29T05:58:37;14.02;;;6.43;;
20629;SDS011;17386;43.846;25.950;2022-10-29T06:01:06;12.88;;;6.13;;
20629;SDS011;17386;43.846;25.950;2022-10-29T06:03:32;14.75;;;6.45;;
20629;SDS011;17386;43.846;25.950;2022-10-29T06:05:57;14.85;;;5.28;;
20629;SDS011;17386;43.846;25.950;2022-10-29T06:08:23;11.50;;;5.78;;
20629;SDS011;17386;43.846;25.950;2022-10-29T06:10:48;9.95;;;4.82;;
20629;SDS011;17386;43.846;25.950;2022-10-29T06:13:15;10.90;;;5.38;;
20629;SDS011;17386;43.846;25.950;2022-10-29T06:15:42;9.25;;;5.05;;
20629;SDS011;17386;43.846;25.950;2022-10-29T06:18:08;9.80;;;5.55;;
20629;SDS011;17386;43.846;25.950;2022-10-29T06:20:34;10.18;;;5.43;;
20629;SDS011;17386;43.846;25.950;2022-10-29T06:23:01;10.70;;;5.55;;
20629;SDS011;17386;43.846;25.950;2022-10-29T06:25:27;11.38;;;5.60;;
20629;SDS011;17386;43.846;25.950;2022-10-29T06:28:06;11.95;;;5.55;;
20629;SDS011;17386;43.846;25.950;2022-10-29T06:30:33;13.18;;;6.07;;
20629;SDS011;17386;43.846;25.950;2022-10-29T06:33:00;10.65;;;5.50;;
20629;SDS011;17386;43.846;25.950;2022-10-29T06:35:26;12.60;;;5.75;;
20629;SDS011;17386;43.846;25.950;2022-10-29T06:37:52;14.30;;;5.95;;
20629;SDS011;17386;43.846;25.950;2022-10-29T06:40:18;12.55;;;5.97;;
20629;SDS011;17386;43.846;25.950;2022-10-29T06:42:43;11.05;;;5.85;;
20629;SDS011;17386;43.846;25.950;2022-10-29T06:45:09;11.50;;;6.00;;
20629;SDS011;17386;43.846;25.950;2022-10-29T06:47:38;10.40;;;5.60;;
20629;SDS011;17386;43.846;25.950;2022-10-29T06:50:08;14.75;;;6.47;;
20629;SDS011;17386;43.846;25.950;2022-10-29T06:52:35;11.57;;;6.13;;
20629;SDS011;17386;43.846;25.950;2022-10-29T06:55:01;12.23;;;5.65;;
20629;SDS011;17386;43.846;25.950;2022-10-29T06:57:27;14.40;;;6.00;;
20629;SDS011;17386;43.846;25.950;2022-10-29T06:59:53;11.38;;;5.93;;
20629;SDS011;17386;43.846;25.950;2022-10-29T07:02:19;10.70;;;6.03;;
20629;SDS011;17386;43.846;25.950;2022-10-29T07:04:45;13.82;;;6.00;;
20629;SDS011;17386;43.846;25.950;2022-10-29T07:07:11;25.88;;;8.90;;
20629;SDS011;17386;43.846;25.950;2022-10-29T07:09:36;15.52;;;6.28;;
20629;SDS011;17386;43.846;25.950;2022-10-29T07:12:02;14.65;;;5.85;;
20629;SDS011;17386;43.846;25.950;2022-10-29T07:14:27;16.60;;;5.45;;
20629;SDS011;17386;43.846;25.950;2022-10-29T07:16:53;14.05;;;6.10;;
20629;SDS011;17386;43.846;25.950;2022-10-29T07:19:18;11.48;;;5.45;;
20629;SDS011;17386;43.846;25.950;2022-10-29T07:21:44;22.27;;;5.55;;
20629;SDS011;17386;43.846;25.950;2022-10-29T07:24:09;11.90;;;5.43;;
20629;SDS011;17386;43.846;25.950;2022-10-29T07:26:35;9.88;;;5.70;;
20629;SDS011;17386;43.846;25.950;2022-10-29T07:29:00;12.88;;;6.32;;
20629;SDS011;17386;43.846;25.950;2022-10-29T07:31:27;11.52;;;5.97;;
20629;SDS011;17386;43.846;25.950;2022-10-29T07:33:54;13.73;;;5.22;;
20629;SDS011;17386;43.846;25.950;2022-10-29T07:36:19;9.52;;;5.03;;
20629;SDS011;17386;43.846;25.950;2022-10-29T07:38:45;9.82;;;5.15;;
20629;SDS011;17386;43.846;25.950;2022-10-29T07:41:10;9.45;;;4.70;;
20629;SDS011;17386;43.846;25.950;2022-10-29T07:43:36;8.70;;;3.92;;
20629;SDS011;17386;43.846;25.950;2022-10-29T07:46:01;8.15;;;4.82;;
20629;SDS011;17386;43.846;25.950;2022-10-29T07:48:26;8.27;;;4.50;;
20629;SDS011;17386;43.846;25.950;2022-10-29T07:50:52;7.15;;;4.25;;
20629;SDS011;17386;43.846;25.950;2022-10-29T07:53:17;15.00;;;4.72;;
20629;SDS011;17386;43.846;25.950;2022-10-29T07:55:43;12.05;;;5.03;;
20629;SDS011;17386;43.846;25.950;2022-10-29T07:58:09;8.77;;;4.28;;
20629;SDS011;17386;43.846;25.950;2022-10-29T08:00:36;10.48;;;4.30;;
20629;SDS011;17386;43.846;25.950;2022-10-29T08:03:03;10.20;;;4.53;;
20629;SDS011;17386;43.846;25.950;2022-10-29T08:05:29;12.27;;;4.90;;
20629;SDS011;17386;43.846;25.950;2022-10-29T08:07:55;11.73;;;5.10;;
20629;SDS011;17386;43.846;25.950;2022-10-29T08:10:21;9.07;;;4.55;;
20629;SDS011;17386;43.846;25.950;2022-10-29T08:12:50;7.57;;;4.38;;
20629;SDS011;17386;43.846;25.950;2022-10-29T08:15:20;9.32;;;4.63;;
20629;SDS011;17386;43.846;25.950;2022-10-29T08:17:46;10.30;;;5.00;;
20629;SDS011;17386;43.846;25.950;2022-10-29T08:20:12;7.55;;;4.45;;
20629;SDS011;17386;43.846;25.950;2022-10-29T08:22:41;12.55;;;4.00;;
20629;SDS011;17386;43.846;25.950;2022-10-29T08:25:07;13.07;;;4.95;;
20629;SDS011;17386;43.846;25.950;2022-10-29T08:27:32;7.93;;;4.15;;
20629;SDS011;17386;43.846;25.950;2022-10-29T08:29:58;6.30;;;3.80;;
20629;SDS011;17386;43.846;25.950;2022-10-29T08:32:23;7.40;;;4.05;;
20629;SDS011;17386;43.846;25.950;2022-10-29T08:34:49;9.45;;;4.13;;
20629;SDS011;17386;43.846;25.950;2022-10-29T08:37:14;8.50;;;3.88;;
20629;SDS011;17386;43.846;25.950;2022-10-29T08:39:39;10.40;;;5.35;;
20629;SDS011;17386;43.846;25.950;2022-10-29T08:42:13;9.18;;;4.18;;
20629;SDS011;17386;43.846;25.950;2022-10-29T08:47:39;7.88;;;4.40;;
20629;SDS011;17386;43.846;25.950;2022-10-29T08:50:18;8.73;;;4.53;;
20629;SDS011;17386;43.846;25.950;2022-10-29T08:52:51;8.18;;;4.43;;
20629;SDS011;17386;43.846;25.950;2022-10-29T08:55:19;12.50;;;4.38;;
20629;SDS011;17386;43.846;25.950;2022-10-29T08:58:29;7.75;;;4.15;;
20629;SDS011;17386;43.846;25.950;2022-10-29T09:00:43;11.77;;;4.53;;
20629;SDS011;17386;43.846;25.950;2022-10-29T09:03:12;10.93;;;4.57;;
20629;SDS011;17386;43.846;25.950;2022-10-29T09:05:48;8.40;;;4.30;;
20629;SDS011;17386;43.846;25.950;2022-10-29T09:08:21;11.13;;;4.68;;
20629;SDS011;17386;43.846;25.950;2022-10-29T09:10:55;8.77;;;4.50;;
20629;SDS011;17386;43.846;25.950;2022-10-29T09:18:48;8.30;;;4.93;;
20629;SDS011;17386;43.846;25.950;2022-10-29T09:27:00;10.38;;;4.43;;
20629;SDS011;17386;43.846;25.950;2022-10-29T09:29:39;9.70;;;4.43;;
20629;SDS011;17386;43.846;25.950;2022-10-29T09:34:53;10.82;;;4.18;;
20629;SDS011;17386;43.846;25.950;2022-10-29T09:39:59;8.60;;;4.38;;
20629;SDS011;17386;43.846;25.950;2022-10-29T09:42:37;10.80;;;4.70;;
20629;SDS011;17386;43.846;25.950;2022-10-29T09:45:05;11.82;;;4.75;;
20629;SDS011;17386;43.846;25.950;2022-10-29T09:53:14;9.32;;;4.80;;
20629;SDS011;17386;43.846;25.950;2022-10-29T09:55:43;7.35;;;4.28;;
20629;SDS011;17386;43.846;25.950;2022-10-29T09:58:16;10.93;;;5.78;;
20629;SDS011;17386;43.846;25.950;2022-10-29T10:00:44;10.40;;;5.55;;
20629;SDS011;17386;43.846;25.950;2022-10-29T10:03:12;10.40;;;5.60;;
20629;SDS011;17386;43.846;25.950;2022-10-29T10:08:28;11.48;;;5.63;;
20629;SDS011;17386;43.846;25.950;2022-10-29T10:11:01;8.50;;;4.70;;
20629;SDS011;17386;43.846;25.950;2022-10-29T10:13:33;8.20;;;4.70;;
20629;SDS011;17386;43.846;25.950;2022-10-29T10:16:03;11.27;;;4.72;;
20629;SDS011;17386;43.846;25.950;2022-10-29T10:26:04;8.98;;;5.15;;
20629;SDS011;17386;43.846;25.950;2022-10-29T10:28:31;8.52;;;4.35;;
20629;SDS011;17386;43.846;25.950;2022-10-29T10:33:27;6.32;;;4.20;;
20629;SDS011;17386;43.846;25.950;2022-10-29T10:35:53;7.93;;;4.35;;
20629;SDS011;17386;43.846;25.950;2022-10-29T10:38:19;9.63;;;4.68;;
20629;SDS011;17386;43.846;25.950;2022-10-29T10:41:03;11.13;;;4.68;;
20629;SDS011;17386;43.846;25.950;2022-10-29T10:43:31;11.25;;;4.85;;
20629;SDS011;17386;43.846;25.950;2022-10-29T10:45:59;13.32;;;6.70;;
20629;SDS011;17386;43.846;25.950;2022-10-29T10:48:29;10.48;;;4.85;;
20629;SDS011;17386;43.846;25.950;2022-10-29T10:51:22;11.15;;;5.70;;
20629;SDS011;17386;43.846;25.950;2022-10-29T10:53:51;10.02;;;4.30;;
20629;SDS011;17386;43.846;25.950;2022-10-29T10:56:18;7.15;;;4.10;;
20629;SDS011;17386;43.846;25.950;2022-10-29T11:06:42;8.07;;;3.72;;
20629;SDS011;17386;43.846;25.950;2022-10-29T11:09:23;11.48;;;6.40;;
20629;SDS011;17386;43.846;25.950;2022-10-29T11:14:48;8.35;;;4.03;;
20629;SDS011;17386;43.846;25.950;2022-10-29T11:19:55;5.68;;;3.50;;
20629;SDS011;17386;43.846;25.950;2022-10-29T11:25:38;7.30;;;3.30;;
20629;SDS011;17386;43.846;25.950;2022-10-29T11:28:13;6.75;;;3.22;;
20629;SDS011;17386;43.846;25.950;2022-10-29T11:30:41;7.13;;;3.53;;
20629;SDS011;17386;43.846;25.950;2022-10-29T11:36:02;7.18;;;3.60;;
20629;SDS011;17386;43.846;25.950;2022-10-29T11:38:40;6.70;;;3.80;;
20629;SDS011;17386;43.846;25.950;2022-10-29T11:41:18;5.63;;;3.08;;
20629;SDS011;17386;43.846;25.950;2022-10-29T11:43:46;8.35;;;3.72;;
20629;SDS011;17386;43.846;25.950;2022-10-29T11:52:11;9.50;;;3.47;;
20629;SDS011;17386;43.846;25.950;2022-10-29T11:55:02;7.10;;;2.97;;
20629;SDS011;17386;43.846;25.950;2022-10-29T11:57:45;4.75;;;2.83;;
20629;SDS011;17386;43.846;25.950;2022-10-29T12:00:22;7.25;;;3.00;;
20629;SDS011;17386;43.846;25.950;2022-10-29T12:05:25;4.30;;;2.60;;
20629;SDS011;17386;43.846;25.950;2022-10-29T12:10:49;4.45;;;3.45;;
20629;SDS011;17386;43.846;25.950;2022-10-29T12:13:20;6.43;;;3.65;;
20629;SDS011;17386;43.846;25.950;2022-10-29T12:16:15;5.80;;;2.90;;
20629;SDS011;17386;43.846;25.950;2022-10-29T12:23:56;6.18;;;2.88;;
20629;SDS011;17386;43.846;25.950;2022-10-29T12:37:08;5.30;;;2.40;;
20629;SDS011;17386;43.846;25.950;2022-10-29T12:39:36;5.50;;;2.97;;
20629;SDS011;17386;43.846;25.950;2022-10-29T12:42:06;7.65;;;3.33;;
20629;SDS011;17386;43.846;25.950;2022-10-29T12:44:43;4.07;;;2.45;;
20629;SDS011;17386;43.846;25.950;2022-10-29T12:47:23;6.88;;;3.00;;
20629;SDS011;17386;43.846;25.950;2022-10-29T12:52:49;4.68;;;2.65;;
20629;SDS011;17386;43.846;25.950;2022-10-29T12:55:21;6.43;;;2.88;;
20629;SDS011;17386;43.846;25.950;2022-10-29T12:57:47;6.75;;;3.53;;
20629;SDS011;17386;43.846;25.950;2022-10-29T13:02:47;10.50;;;4.15;;
20629;SDS011;17386;43.846;25.950;2022-10-29T13:05:16;5.82;;;3.00;;
20629;SDS011;17386;43.846;25.950;2022-10-29T13:15:43;7.15;;;2.90;;
20629;SDS011;17386;43.846;25.950;2022-10-29T13:20:38;8.50;;;3.45;;
20629;SDS011;17386;43.846;25.950;2022-10-29T13:23:29;7.03;;;3.78;;
20629;SDS011;17386;43.846;25.950;2022-10-29T13:25:53;7.18;;;4.10;;
20629;SDS011;17386;43.846;25.950;2022-10-29T13:30:52;6.53;;;3.45;;
20629;SDS011;17386;43.846;25.950;2022-10-29T13:43:36;6.53;;;2.80;;
20629;SDS011;17386;43.846;25.950;2022-10-29T13:48:41;9.85;;;3.30;;
20629;SDS011;17386;43.846;25.950;2022-10-29T13:51:09;6.93;;;3.15;;
20629;SDS011;17386;43.846;25.950;2022-10-29T13:53:47;8.65;;;3.58;;
20629;SDS011;17386;43.846;25.950;2022-10-29T13:56:19;5.68;;;2.90;;
20629;SDS011;17386;43.846;25.950;2022-10-29T13:58:52;10.48;;;2.90;;
20629;SDS011;17386;43.846;25.950;2022-10-29T14:01:21;5.80;;;2.63;;
20629;SDS011;17386;43.846;25.950;2022-10-29T14:06:44;6.97;;;3.22;;
20629;SDS011;17386;43.846;25.950;2022-10-29T14:09:18;6.50;;;3.10;;
20629;SDS011;17386;43.846;25.950;2022-10-29T14:11:53;5.45;;;2.90;;
20629;SDS011;17386;43.846;25.950;2022-10-29T14:14:28;6.43;;;3.80;;
20629;SDS011;17386;43.846;25.950;2022-10-29T14:17:08;8.95;;;3.22;;
20629;SDS011;17386;43.846;25.950;2022-10-29T14:19:35;5.38;;;3.25;;
20629;SDS011;17386;43.846;25.950;2022-10-29T14:22:01;7.53;;;3.42;;
20629;SDS011;17386;43.846;25.950;2022-10-29T14:24:26;7.20;;;3.53;;
20629;SDS011;17386;43.846;25.950;2022-10-29T14:27:06;6.88;;;3.65;;
20629;SDS011;17386;43.846;25.950;2022-10-29T14:29:32;8.77;;;4.10;;
20629;SDS011;17386;43.846;25.950;2022-10-29T14:34:36;9.90;;;4.13;;
20629;SDS011;17386;43.846;25.950;2022-10-29T14:37:03;11.70;;;3.75;;
20629;SDS011;17386;43.846;25.950;2022-10-29T14:39:33;11.93;;;4.32;;
20629;SDS011;17386;43.846;25.950;2022-10-29T14:42:04;14.82;;;4.72;;
20629;SDS011;17386;43.846;25.950;2022-10-29T14:44:39;10.43;;;5.32;;
20629;SDS011;17386;43.846;25.950;2022-10-29T14:47:12;10.35;;;4.85;;
20629;SDS011;17386;43.846;25.950;2022-10-29T14:49:51;10.90;;;5.05;;
20629;SDS011;17386;43.846;25.950;2022-10-29T14:52:32;13.40;;;6.32;;
20629;SDS011;17386;43.846;25.950;2022-10-29T14:55:13;14.95;;;6.15;;
20629;SDS011;17386;43.846;25.950;2022-10-29T14:57:45;17.05;;;8.05;;
20629;SDS011;17386;43.846;25.950;2022-10-29T15:00:26;18.10;;;6.97;;
20629;SDS011;17386;43.846;25.950;2022-10-29T15:02:54;17.90;;;7.57;;
20629;SDS011;17386;43.846;25.950;2022-10-29T15:05:30;19.92;;;7.32;;
20629;SDS011;17386;43.846;25.950;2022-10-29T15:08:04;14.43;;;6.38;;
20629;SDS011;17386;43.846;25.950;2022-10-29T15:10:42;18.77;;;7.25;;
20629;SDS011;17386;43.846;25.950;2022-10-29T15:18:26;18.38;;;6.55;;
20629;SDS011;17386;43.846;25.950;2022-10-29T15:20:52;19.73;;;6.28;;
20629;SDS011;17386;43.846;25.950;2022-10-29T15:26:05;22.75;;;7.00;;
20629;SDS011;17386;43.846;25.950;2022-10-29T15:28:36;15.80;;;6.22;;
20629;SDS011;17386;43.846;25.950;2022-10-29T15:31:04;31.70;;;7.55;;
20629;SDS011;17386;43.846;25.950;2022-10-29T15:33:30;19.23;;;7.90;;
20629;SDS011;17386;43.846;25.950;2022-10-29T15:43:47;21.95;;;8.10;;
20629;SDS011;17386;43.846;25.950;2022-10-29T15:48:59;18.27;;;6.95;;
20629;SDS011;17386;43.846;25.950;2022-10-29T15:51:28;21.55;;;8.55;;
20629;SDS011;17386;43.846;25.950;2022-10-29T15:53:55;22.58;;;8.15;;
20629;SDS011;17386;43.846;25.950;2022-10-29T15:56:22;23.70;;;7.95;;
20629;SDS011;17386;43.846;25.950;2022-10-29T15:58:48;18.27;;;7.60;;
20629;SDS011;17386;43.846;25.950;2022-10-29T16:01:15;20.02;;;7.85;;
20629;SDS011;17386;43.846;25.950;2022-10-29T16:03:41;20.92;;;8.52;;
20629;SDS011;17386;43.846;25.950;2022-10-29T16:06:07;23.98;;;8.77;;
20629;SDS011;17386;43.846;25.950;2022-10-29T16:08:38;21.77;;;8.30;;
20629;SDS011;17386;43.846;25.950;2022-10-29T16:11:06;21.25;;;8.98;;
20629;SDS011;17386;43.846;25.950;2022-10-29T16:13:36;20.30;;;8.50;;
20629;SDS011;17386;43.846;25.950;2022-10-29T16:16:02;17.80;;;8.50;;
20629;SDS011;17386;43.846;25.950;2022-10-29T16:18:27;26.38;;;8.93;;
20629;SDS011;17386;43.846;25.950;2022-10-29T16:20:56;17.70;;;8.88;;
20629;SDS011;17386;43.846;25.950;2022-10-29T16:23:23;18.33;;;8.98;;
20629;SDS011;17386;43.846;25.950;2022-10-29T16:25:48;17.88;;;9.25;;
20629;SDS011;17386;43.846;25.950;2022-10-29T16:28:14;21.75;;;9.63;;
20629;SDS011;17386;43.846;25.950;2022-10-29T16:30:39;19.77;;;9.55;;
20629;SDS011;17386;43.846;25.950;2022-10-29T16:33:07;24.38;;;10.70;;
20629;SDS011;17386;43.846;25.950;2022-10-29T16:35:34;21.50;;;10.55;;
20629;SDS011;17386;43.846;25.950;2022-10-29T16:38:00;18.98;;;10.77;;
20629;SDS011;17386;43.846;25.950;2022-10-29T16:40:25;24.65;;;11.02;;
20629;SDS011;17386;43.846;25.950;2022-10-29T16:42:52;24.02;;;10.43;;
20629;SDS011;17386;43.846;25.950;2022-10-29T16:47:50;20.83;;;10.95;;
20629;SDS011;17386;43.846;25.950;2022-10-29T16:50:37;25.98;;;11.88;;
20629;SDS011;17386;43.846;25.950;2022-10-29T16:53:03;26.98;;;12.00;;
20629;SDS011;17386;43.846;25.950;2022-10-29T16:55:30;32.05;;;13.27;;
20629;SDS011;17386;43.846;25.950;2022-10-29T16:57:56;27.90;;;13.30;;
20629;SDS011;17386;43.846;25.950;2022-10-29T17:00:21;28.85;;;13.48;;
20629;SDS011;17386;43.846;25.950;2022-10-29T17:02:49;27.35;;;13.82;;
20629;SDS011;17386;43.846;25.950;2022-10-29T17:05:15;31.13;;;13.95;;
20629;SDS011;17386;43.846;25.950;2022-10-29T17:07:40;29.45;;;13.45;;
20629;SDS011;17386;43.846;25.950;2022-10-29T17:10:06;36.13;;;13.75;;
20629;SDS011;17386;43.846;25.950;2022-10-29T17:12:32;32.60;;;15.13;;
20629;SDS011;17386;43.846;25.950;2022-10-29T17:14:58;32.85;;;16.88;;
20629;SDS011;17386;43.846;25.950;2022-10-29T17:17:23;36.75;;;17.15;;
20629;SDS011;17386;43.846;25.950;2022-10-29T17:19:49;34.90;;;15.45;;
20629;SDS011;17386;43.846;25.950;2022-10-29T17:22:14;35.33;;;17.35;;
20629;SDS011;17386;43.846;25.950;2022-10-29T17:24:43;37.83;;;16.55;;